createdAt,value
2023-03-17T00:01:51.516Z,2.93
2023-03-17T00:04:20.173Z,2.80
2023-03-17T00:06:48.673Z,2.77
2023-03-17T00:09:19.017Z,2.70
2023-03-17T00:11:49.453Z,2.80
2023-03-17T00:14:18.131Z,3.10
2023-03-17T00:16:49.607Z,2.63
2023-03-17T00:19:19.550Z,3.50
2023-03-17T00:21:48.035Z,2.53
2023-03-17T00:24:16.171Z,3.23
2023-03-17T00:26:44.982Z,2.90
2023-03-17T00:29:16.291Z,4.50
2023-03-17T00:31:46.091Z,3.70
2023-03-17T00:34:17.251Z,2.40
2023-03-17T00:36:49.916Z,2.90
2023-03-17T00:39:18.758Z,2.40
2023-03-17T00:41:49.771Z,2.60
2023-03-17T00:44:20.298Z,2.53
2023-03-17T00:46:48.757Z,3.17
2023-03-17T00:49:20.872Z,3.13
2023-03-17T00:51:50.839Z,2.43
2023-03-17T00:54:20.743Z,2.90
2023-03-17T00:56:50.933Z,3.70
2023-03-17T00:59:27.669Z,2.63
2023-03-17T01:01:56.465Z,4.93
2023-03-17T01:04:24.834Z,3.50
2023-03-17T01:06:53.424Z,4.50
2023-03-17T01:09:26.427Z,3.00
2023-03-17T01:11:55.239Z,3.20
2023-03-17T01:14:25.834Z,2.73
2023-03-17T01:16:55.242Z,3.00
2023-03-17T01:19:24.020Z,2.63
2023-03-17T01:21:52.381Z,3.73
2023-03-17T01:24:21.091Z,3.90
2023-03-17T01:26:49.326Z,2.70
2023-03-17T01:29:17.586Z,2.73
2023-03-17T01:31:47.776Z,2.67
2023-03-17T01:34:16.112Z,2.50
2023-03-17T01:36:44.268Z,2.33
2023-03-17T01:39:12.909Z,3.53
2023-03-17T01:41:41.248Z,2.37
2023-03-17T01:44:18.390Z,6.13
2023-03-17T01:46:49.611Z,2.77
2023-03-17T01:49:23.801Z,2.67
2023-03-17T01:52:03.665Z,2.33
2023-03-17T01:54:36.745Z,2.80
2023-03-17T01:57:10.610Z,2.70
2023-03-17T01:59:44.282Z,2.80
2023-03-17T02:02:19.630Z,2.40
2023-03-17T02:04:47.830Z,2.53
2023-03-17T02:07:15.965Z,4.47
2023-03-17T02:09:44.771Z,2.77
2023-03-17T02:12:13.808Z,2.53
2023-03-17T02:14:42.222Z,2.87
2023-03-17T02:17:11.278Z,2.30
2023-03-17T02:19:40.830Z,2.97
2023-03-17T02:22:10.722Z,2.30
2023-03-17T02:24:43.382Z,2.50
2023-03-17T02:27:15.255Z,2.73
2023-03-17T02:29:46.547Z,8.30
2023-03-17T02:32:17.772Z,2.77
2023-03-17T02:34:46.436Z,2.67
2023-03-17T02:37:16.490Z,3.40
2023-03-17T02:39:44.864Z,7.20
2023-03-17T02:42:14.104Z,3.10
2023-03-17T02:44:42.401Z,2.97
2023-03-17T02:47:11.455Z,3.10
2023-03-17T02:49:41.079Z,2.77
2023-03-17T02:52:09.879Z,3.60
2023-03-17T02:54:39.682Z,3.20
2023-03-17T02:57:08.658Z,3.50
2023-03-17T02:59:38.479Z,3.30
2023-03-17T03:02:07.000Z,3.80
2023-03-17T03:04:36.003Z,3.00
2023-03-17T03:07:04.331Z,7.93
2023-03-17T03:09:32.933Z,3.50
2023-03-17T03:12:02.578Z,4.07
2023-03-17T03:14:30.816Z,3.60
2023-03-17T03:16:59.649Z,3.40
2023-03-17T03:19:28.440Z,3.30
2023-03-17T03:21:56.632Z,3.10
2023-03-17T03:24:24.970Z,4.47
2023-03-17T03:26:53.389Z,3.37
2023-03-17T03:29:22.966Z,4.37
2023-03-17T03:31:51.704Z,3.73
2023-03-17T03:34:19.974Z,3.57
2023-03-17T03:36:48.314Z,3.13
2023-03-17T03:39:16.701Z,4.70
2023-03-17T03:41:44.881Z,3.47
2023-03-17T03:44:13.235Z,3.43
2023-03-17T03:46:43.143Z,4.43
2023-03-17T03:49:11.317Z,3.63
2023-03-17T03:51:39.492Z,3.10
2023-03-17T03:54:07.737Z,3.20
2023-03-17T03:56:35.941Z,4.07
2023-03-17T03:59:04.172Z,3.43
2023-03-17T04:01:32.647Z,3.00
2023-03-17T04:04:02.253Z,3.20
2023-03-17T04:06:30.513Z,3.17
2023-03-17T04:08:58.909Z,4.37
2023-03-17T04:11:27.537Z,3.43
2023-03-17T04:13:55.724Z,2.97
2023-03-17T04:16:24.267Z,3.27
2023-03-17T04:18:52.670Z,3.30
2023-03-17T04:21:22.309Z,3.10
2023-03-17T04:23:50.680Z,3.07
2023-03-17T04:26:19.097Z,5.60
2023-03-17T04:28:47.841Z,2.73
2023-03-17T04:31:16.536Z,4.20
2023-03-17T04:33:44.686Z,3.63
2023-03-17T04:36:20.039Z,2.90
2023-03-17T04:38:49.595Z,5.43
2023-03-17T04:41:18.105Z,4.50
2023-03-17T04:43:46.408Z,4.20
2023-03-17T04:46:15.197Z,6.97
2023-03-17T04:48:43.350Z,5.10
2023-03-17T04:51:11.945Z,6.73
2023-03-17T04:53:40.238Z,2.87
2023-03-17T04:56:10.121Z,3.67
2023-03-17T04:58:38.745Z,5.00
2023-03-17T05:01:07.408Z,8.93
2023-03-17T05:03:35.847Z,4.30
2023-03-17T05:06:05.177Z,4.33
2023-03-17T05:08:33.593Z,6.10
2023-03-17T05:11:02.367Z,7.43
2023-03-17T05:13:31.885Z,6.27
2023-03-17T05:16:01.534Z,4.97
2023-03-17T05:18:29.791Z,5.17
2023-03-17T05:20:58.120Z,2.83
2023-03-17T05:23:26.470Z,4.07
2023-03-17T05:25:54.841Z,5.00
2023-03-17T05:28:23.141Z,2.83
2023-03-17T05:30:53.059Z,3.57
2023-03-17T05:33:21.826Z,4.20
2023-03-17T05:35:50.076Z,6.87
2023-03-17T05:38:18.976Z,3.07
2023-03-17T05:40:50.059Z,3.57
2023-03-17T05:43:18.315Z,5.07
2023-03-17T05:45:47.593Z,5.40
2023-03-17T05:48:17.607Z,3.43
2023-03-17T05:50:46.114Z,4.83
2023-03-17T05:53:14.296Z,3.73
2023-03-17T05:55:42.741Z,4.73
2023-03-17T05:58:10.892Z,3.73
2023-03-17T06:00:39.045Z,3.27
2023-03-17T06:03:07.834Z,3.40
2023-03-17T06:05:37.583Z,4.37
2023-03-17T06:08:06.200Z,4.20
2023-03-17T06:10:34.905Z,3.80
2023-03-17T06:13:04.714Z,5.70
2023-03-17T06:15:34.300Z,3.90
2023-03-17T06:18:05.192Z,4.13
2023-03-17T06:20:33.839Z,3.97
2023-03-17T06:23:05.785Z,3.83
2023-03-17T06:25:34.951Z,3.30
2023-03-17T06:28:03.803Z,2.77
2023-03-17T06:30:32.901Z,6.63
2023-03-17T06:33:01.710Z,5.03
2023-03-17T06:35:30.639Z,3.90
2023-03-17T06:38:03.505Z,4.13
2023-03-17T06:40:32.209Z,3.53
2023-03-17T06:43:01.210Z,4.03
2023-03-17T06:45:30.085Z,3.40
2023-03-17T06:47:58.797Z,4.10
2023-03-17T06:50:27.053Z,3.90
2023-03-17T06:52:55.336Z,5.63
2023-03-17T06:55:24.843Z,6.97
2023-03-17T06:57:54.355Z,6.20
2023-03-17T07:00:23.852Z,5.70
2023-03-17T07:02:52.759Z,5.37
2023-03-17T07:05:21.050Z,10.63
2023-03-17T07:07:49.573Z,5.57
2023-03-17T07:10:18.439Z,8.13
2023-03-17T07:12:47.952Z,4.90
2023-03-17T07:15:17.259Z,3.77
2023-03-17T07:17:46.847Z,4.13
2023-03-17T07:20:15.242Z,6.27
2023-03-17T07:22:44.059Z,6.43
2023-03-17T07:25:12.758Z,8.13
2023-03-17T07:27:41.033Z,4.00
2023-03-17T07:30:12.936Z,6.07
2023-03-17T07:32:41.828Z,7.57
2023-03-17T07:35:10.771Z,3.73
2023-03-17T07:37:39.328Z,4.00
2023-03-17T07:40:10.908Z,5.43
2023-03-17T07:42:39.255Z,4.33
2023-03-17T07:45:08.586Z,6.00
2023-03-17T07:47:39.344Z,4.40
2023-03-17T07:50:08.311Z,3.83
2023-03-17T07:52:36.539Z,5.77
2023-03-17T07:55:05.055Z,3.80
2023-03-17T07:57:33.323Z,7.00
2023-03-17T08:00:01.688Z,5.23
2023-03-17T08:02:30.050Z,5.80
2023-03-17T08:04:59.969Z,6.13
2023-03-17T08:07:28.111Z,5.50
2023-03-17T08:09:56.261Z,6.10
2023-03-17T08:12:24.676Z,6.63
2023-03-17T08:14:53.554Z,5.57
2023-03-17T08:17:21.727Z,5.60
2023-03-17T08:19:50.592Z,4.37
2023-03-17T08:22:20.353Z,7.03
2023-03-17T08:24:48.921Z,3.83
2023-03-17T08:27:18.728Z,3.63
2023-03-17T08:29:47.105Z,6.17
2023-03-17T08:32:15.343Z,7.90
2023-03-17T08:34:44.458Z,4.43
2023-03-17T08:37:13.012Z,7.23
2023-03-17T08:39:42.943Z,4.67
2023-03-17T08:42:11.897Z,3.90
2023-03-17T08:44:41.294Z,6.60
2023-03-17T08:47:10.426Z,5.53
2023-03-17T08:49:38.720Z,6.47
2023-03-17T08:52:06.935Z,7.37
2023-03-17T08:54:36.941Z,6.90
2023-03-17T08:57:06.795Z,7.30
2023-03-17T08:59:34.954Z,3.83
2023-03-17T09:02:03.187Z,5.87
2023-03-17T09:04:32.547Z,7.30
2023-03-17T09:07:04.225Z,5.27
2023-03-17T09:09:34.556Z,11.10
2023-03-17T09:12:04.524Z,7.03
2023-03-17T09:14:42.967Z,4.40
2023-03-17T09:17:11.920Z,7.00
2023-03-17T09:19:40.555Z,4.23
2023-03-17T09:22:09.059Z,9.07
2023-03-17T09:24:37.327Z,4.03
2023-03-17T09:27:06.253Z,6.10
2023-03-17T09:29:36.237Z,4.93
2023-03-17T09:32:04.412Z,5.53
2023-03-17T09:34:33.088Z,9.37
2023-03-17T09:37:01.215Z,9.93
2023-03-17T09:39:29.486Z,4.77
2023-03-17T09:42:16.746Z,6.13
2023-03-17T09:45:04.387Z,8.43
2023-03-17T09:47:52.829Z,4.07
2023-03-17T09:50:26.264Z,3.90
2023-03-17T09:52:57.351Z,8.03
2023-03-17T09:55:29.514Z,6.63
2023-03-17T09:58:00.877Z,7.00
2023-03-17T10:00:33.367Z,9.43
2023-03-17T10:03:02.308Z,3.73
2023-03-17T10:05:32.777Z,5.20
2023-03-17T10:08:19.097Z,4.33
2023-03-17T10:11:01.883Z,3.90
2023-03-17T10:13:46.245Z,5.90
2023-03-17T10:16:19.433Z,5.13
2023-03-17T10:18:53.103Z,7.70
2023-03-17T10:21:26.774Z,8.10
2023-03-17T10:23:56.559Z,4.33
2023-03-17T10:26:31.128Z,7.23
2023-03-17T10:29:03.956Z,7.13
2023-03-17T10:31:35.698Z,6.50
2023-03-17T10:34:14.436Z,6.53
2023-03-17T10:36:46.005Z,5.10
2023-03-17T10:39:18.616Z,6.17
2023-03-17T10:41:55.723Z,6.23
2023-03-17T10:44:42.051Z,6.17
2023-03-17T10:47:40.926Z,5.87
2023-03-17T10:50:23.044Z,7.50
2023-03-17T10:52:55.341Z,7.40
2023-03-17T10:55:28.022Z,7.07
2023-03-17T10:58:03.109Z,5.57
2023-03-17T11:00:35.382Z,6.80
2023-03-17T11:03:13.930Z,7.67
2023-03-17T11:05:55.100Z,5.50
2023-03-17T11:08:23.386Z,6.53
2023-03-17T11:10:56.929Z,10.43
2023-03-17T11:13:30.352Z,8.57
2023-03-17T11:16:08.312Z,6.00
2023-03-17T11:18:39.410Z,4.43
2023-03-17T11:21:11.096Z,4.37
2023-03-17T11:23:53.562Z,8.40
2023-03-17T11:26:48.729Z,5.57
2023-03-17T11:29:25.638Z,3.87
2023-03-17T11:32:02.132Z,4.93
2023-03-17T11:34:46.381Z,5.40
2023-03-17T11:37:28.866Z,6.93
2023-03-17T11:40:04.059Z,6.87
2023-03-17T11:42:39.887Z,7.13
2023-03-17T11:45:18.491Z,6.63
2023-03-17T11:47:59.904Z,6.23
2023-03-17T11:50:35.272Z,4.40
2023-03-17T11:53:26.197Z,4.83
2023-03-17T11:56:01.703Z,7.67
2023-03-17T11:58:37.056Z,6.73
2023-03-17T12:01:09.164Z,7.83
2023-03-17T12:03:42.599Z,6.07
2023-03-17T12:06:20.769Z,5.30
2023-03-17T12:08:54.662Z,6.77
2023-03-17T12:11:28.120Z,5.70
2023-03-17T12:14:01.193Z,7.03
2023-03-17T12:16:34.899Z,7.23
2023-03-17T12:19:11.567Z,7.20
2023-03-17T12:21:46.698Z,4.83
2023-03-17T12:24:20.427Z,5.17
2023-03-17T12:26:57.712Z,6.97
2023-03-17T12:29:38.724Z,5.60
2023-03-17T12:32:13.012Z,5.43
2023-03-17T12:34:46.339Z,6.40
2023-03-17T12:37:17.532Z,5.77
2023-03-17T12:39:51.337Z,6.73
2023-03-17T12:42:43.581Z,3.93
2023-03-17T12:45:35.344Z,5.43
2023-03-17T12:48:31.365Z,4.80
2023-03-17T12:51:27.421Z,4.27
2023-03-17T12:53:57.504Z,5.43
2023-03-17T12:56:29.787Z,3.90
2023-03-17T12:59:04.199Z,6.30
2023-03-17T13:01:34.799Z,5.10
2023-03-17T13:04:12.082Z,6.73
2023-03-17T13:06:45.315Z,3.63
2023-03-17T13:09:43.510Z,4.13
2023-03-17T13:12:37.161Z,8.57
2023-03-17T13:15:24.359Z,6.33
2023-03-17T13:18:11.016Z,3.30
2023-03-17T13:20:42.535Z,5.00
2023-03-17T13:23:15.474Z,8.27
2023-03-17T13:25:53.872Z,3.80
2023-03-17T13:28:28.220Z,2.97
2023-03-17T13:31:32.906Z,3.37
2023-03-17T13:34:14.214Z,4.47
2023-03-17T13:37:02.604Z,3.53
2023-03-17T13:39:55.608Z,4.20
2023-03-17T13:42:39.223Z,6.10
2023-03-17T13:45:35.338Z,3.97
2023-03-17T13:48:29.055Z,5.90
2023-03-17T13:51:01.365Z,7.20
2023-03-17T13:53:34.385Z,4.47
2023-03-17T13:56:23.880Z,5.97
2023-03-17T13:58:58.938Z,4.20
2023-03-17T14:01:33.676Z,5.63
2023-03-17T14:04:09.348Z,4.63
2023-03-17T14:06:39.776Z,7.17
2023-03-17T14:09:12.355Z,3.97
2023-03-17T14:11:42.736Z,4.10
2023-03-17T14:14:32.444Z,4.10
2023-03-17T14:17:06.442Z,5.13
2023-03-17T14:19:35.395Z,2.73
2023-03-17T14:22:05.485Z,5.33
2023-03-17T14:24:34.704Z,3.97
2023-03-17T14:27:08.469Z,5.00
2023-03-17T14:29:38.738Z,4.73
2023-03-17T14:32:13.452Z,4.37
2023-03-17T14:34:44.676Z,10.07
2023-03-17T14:37:13.872Z,4.30
2023-03-17T14:39:47.089Z,5.53
2023-03-17T14:42:15.467Z,5.70
2023-03-17T14:44:45.569Z,4.23
2023-03-17T14:47:20.700Z,5.03
2023-03-17T14:49:50.142Z,3.77
2023-03-17T14:52:25.384Z,5.97
2023-03-17T14:54:54.848Z,5.43
2023-03-17T14:57:29.194Z,5.83
2023-03-17T15:00:00.482Z,6.73
2023-03-17T15:02:35.470Z,4.00
2023-03-17T15:05:22.216Z,4.37
2023-03-17T15:07:50.928Z,5.50
2023-03-17T15:10:21.033Z,5.43
2023-03-17T15:12:49.370Z,3.30
2023-03-17T15:15:29.959Z,3.00
2023-03-17T15:18:00.621Z,3.33
2023-03-17T15:20:31.834Z,3.37
2023-03-17T15:23:04.082Z,5.63
2023-03-17T15:25:38.594Z,8.17
2023-03-17T15:28:12.483Z,3.90
2023-03-17T15:30:47.511Z,3.60
2023-03-17T15:33:22.430Z,6.30
2023-03-17T15:35:51.922Z,3.73
2023-03-17T15:38:21.553Z,7.00
2023-03-17T15:40:50.347Z,5.23
2023-03-17T15:43:23.054Z,4.73
2023-03-17T15:45:56.524Z,3.70
2023-03-17T15:48:27.554Z,4.00
2023-03-17T15:50:58.469Z,4.57
2023-03-17T15:53:27.095Z,6.10
2023-03-17T15:55:55.410Z,5.90
2023-03-17T15:58:23.924Z,5.23
2023-03-17T16:00:57.555Z,5.07
2023-03-17T16:03:30.596Z,4.90
2023-03-17T16:05:59.511Z,4.20
2023-03-17T16:08:27.758Z,8.13
2023-03-17T16:10:56.113Z,7.23
2023-03-17T16:13:24.482Z,6.17
2023-03-17T16:15:58.063Z,5.63
2023-03-17T16:18:32.578Z,6.00
2023-03-17T16:21:01.263Z,5.87
2023-03-17T16:23:33.363Z,4.30
2023-03-17T16:26:14.256Z,8.73
2023-03-17T16:28:45.830Z,8.10
2023-03-17T16:31:20.741Z,5.43
2023-03-17T16:33:49.161Z,3.83
2023-03-17T16:36:19.064Z,6.33
2023-03-17T16:38:48.128Z,4.50
2023-03-17T16:41:20.726Z,6.37
2023-03-17T16:43:52.363Z,4.27
2023-03-17T16:46:23.451Z,10.43
2023-03-17T16:48:52.292Z,8.33
2023-03-17T16:51:21.238Z,10.33
2023-03-17T16:53:49.485Z,5.27
2023-03-17T16:56:20.876Z,8.40
2023-03-17T16:58:49.734Z,8.90
2023-03-17T17:01:20.941Z,6.30
2023-03-17T17:03:51.495Z,7.60
2023-03-17T17:06:20.717Z,8.23
2023-03-17T17:08:50.310Z,4.83
2023-03-17T17:11:20.357Z,6.03
2023-03-17T17:13:51.642Z,14.97
2023-03-17T17:16:24.610Z,5.83
2023-03-17T17:18:54.319Z,5.93
2023-03-17T17:21:22.839Z,7.70
2023-03-17T17:23:53.038Z,7.53
2023-03-17T17:26:21.537Z,9.63
2023-03-17T17:28:50.318Z,5.50
2023-03-17T17:31:18.579Z,9.33
2023-03-17T17:33:46.902Z,10.40
2023-03-17T17:36:18.177Z,8.10
2023-03-17T17:38:46.582Z,14.20
2023-03-17T17:41:17.097Z,9.13
2023-03-17T17:43:46.376Z,12.33
2023-03-17T17:46:19.469Z,6.57
2023-03-17T17:48:48.432Z,10.70
2023-03-17T17:51:18.024Z,7.13
2023-03-17T17:53:46.343Z,9.23
2023-03-17T17:56:16.073Z,6.93
2023-03-17T17:58:45.462Z,10.37
2023-03-17T18:01:19.679Z,8.73
2023-03-17T18:03:48.112Z,10.63
2023-03-17T18:06:18.281Z,11.37
2023-03-17T18:08:47.087Z,10.07
2023-03-17T18:11:15.535Z,10.77
2023-03-17T18:13:43.714Z,9.10
2023-03-17T18:16:15.312Z,9.23
2023-03-17T18:18:45.655Z,8.17
2023-03-17T18:21:14.304Z,8.53
2023-03-17T18:23:47.447Z,13.73
2023-03-17T18:26:17.174Z,13.07
2023-03-17T18:28:45.817Z,14.67
2023-03-17T18:31:17.733Z,16.70
2023-03-17T18:33:48.185Z,13.83
2023-03-17T18:36:16.609Z,13.13
2023-03-17T18:38:46.390Z,12.00
2023-03-17T18:41:15.406Z,11.73
2023-03-17T18:43:44.909Z,10.00
2023-03-17T18:46:13.808Z,16.70
2023-03-17T18:48:42.115Z,14.43
2023-03-17T18:51:10.471Z,12.47
2023-03-17T18:53:39.517Z,11.83
2023-03-17T18:56:10.056Z,9.60
2023-03-17T18:58:38.317Z,13.33
2023-03-17T19:01:07.810Z,10.77
2023-03-17T19:03:36.610Z,9.10
2023-03-17T19:06:13.388Z,15.00
2023-03-17T19:08:42.035Z,12.93
2023-03-17T19:11:13.960Z,11.53
2023-03-17T19:13:43.293Z,12.23
2023-03-17T19:16:11.860Z,10.97
2023-03-17T19:18:42.177Z,12.50
2023-03-17T19:21:11.680Z,12.40
2023-03-17T19:23:41.435Z,15.83
2023-03-17T19:26:11.762Z,8.33
2023-03-17T19:28:40.480Z,11.83
2023-03-17T19:31:09.366Z,12.80
2023-03-17T19:33:38.549Z,15.00
2023-03-17T19:36:09.434Z,19.13
2023-03-17T19:38:37.771Z,11.37
2023-03-17T19:41:06.785Z,13.67
2023-03-17T19:43:41.236Z,17.57
2023-03-17T19:46:10.964Z,12.27
2023-03-17T19:48:39.682Z,14.17
2023-03-17T19:51:08.121Z,15.17
2023-03-17T19:53:37.382Z,16.03
2023-03-17T19:56:06.489Z,13.63
2023-03-17T19:58:36.167Z,19.23
2023-03-17T20:01:04.722Z,12.43
2023-03-17T20:03:33.949Z,15.70
2023-03-17T20:06:06.060Z,11.50
2023-03-17T20:08:35.818Z,12.50
2023-03-17T20:11:05.810Z,11.00
2023-03-17T20:13:35.812Z,17.20
2023-03-17T20:22:20.450Z,16.70
2023-03-17T20:24:48.805Z,13.43
2023-03-17T20:27:17.430Z,12.00
2023-03-17T20:29:48.593Z,13.23
2023-03-17T20:32:17.344Z,19.27
2023-03-17T20:34:46.740Z,14.73
2023-03-17T20:37:15.260Z,14.20
2023-03-17T20:39:44.069Z,15.43
2023-03-17T20:42:14.662Z,11.77
2023-03-17T20:44:43.219Z,10.03
2023-03-17T20:47:14.148Z,10.77
2023-03-17T20:49:42.608Z,11.03
2023-03-17T20:52:14.472Z,16.43
2023-03-17T20:54:43.596Z,13.13
2023-03-17T20:57:14.028Z,13.60
2023-03-17T20:59:43.996Z,11.63
2023-03-17T21:02:18.315Z,11.10
2023-03-17T21:04:48.976Z,10.90
2023-03-17T21:07:18.607Z,15.33
2023-03-17T21:09:47.177Z,17.73
2023-03-17T21:12:18.272Z,22.70
2023-03-17T21:14:48.120Z,43.00
2023-03-17T21:17:18.381Z,20.13
2023-03-17T21:19:47.559Z,15.17
2023-03-17T21:22:16.040Z,12.17
2023-03-17T21:24:44.435Z,14.73
2023-03-17T21:27:13.475Z,16.63
2023-03-17T21:29:41.871Z,14.87
2023-03-17T21:32:10.079Z,16.13
2023-03-17T21:34:39.958Z,17.13
2023-03-17T21:37:08.281Z,12.07
2023-03-17T21:39:37.229Z,11.03
2023-03-17T21:42:06.107Z,12.40
2023-03-17T21:44:34.381Z,14.83
2023-03-17T21:47:03.446Z,9.80
2023-03-17T21:49:32.133Z,12.73
2023-03-17T21:52:01.827Z,10.97
2023-03-17T21:54:30.421Z,12.30
2023-03-17T21:56:58.903Z,13.00
2023-03-17T21:59:30.789Z,13.73
2023-03-17T22:01:59.911Z,11.33
2023-03-17T22:04:29.342Z,11.57
2023-03-17T22:06:58.918Z,16.10
2023-03-17T22:09:28.918Z,14.23
2023-03-17T22:11:57.202Z,12.03
2023-03-17T22:14:25.642Z,18.13
2023-03-17T22:16:54.426Z,16.80
2023-03-17T22:19:22.597Z,12.20
2023-03-17T22:21:51.693Z,12.90
2023-03-17T22:24:20.838Z,17.17
2023-03-17T22:26:50.533Z,13.80
2023-03-17T22:29:18.853Z,16.03
2023-03-17T22:31:50.122Z,14.07
2023-03-17T22:34:19.368Z,18.73
2023-03-17T22:36:47.522Z,13.63
2023-03-17T22:39:16.225Z,12.87
2023-03-17T22:41:44.888Z,16.77
2023-03-17T22:44:14.450Z,16.47
2023-03-17T22:46:42.888Z,13.40
2023-03-17T22:49:11.403Z,14.57
2023-03-17T22:51:41.364Z,17.73
2023-03-17T22:54:11.395Z,16.17
2023-03-17T22:56:39.829Z,15.73
2023-03-17T22:59:08.192Z,12.07
2023-03-17T23:01:38.128Z,16.13
2023-03-17T23:04:07.762Z,12.60
2023-03-17T23:06:38.148Z,16.40
2023-03-17T23:09:06.939Z,13.83
2023-03-17T23:11:35.135Z,15.63
2023-03-17T23:14:04.393Z,15.80
2023-03-17T23:16:33.550Z,12.77
2023-03-17T23:19:03.194Z,17.23
2023-03-17T23:21:33.392Z,16.63
2023-03-17T23:24:02.417Z,16.67
2023-03-17T23:26:31.993Z,12.17
2023-03-17T23:29:00.882Z,14.13
2023-03-17T23:31:29.220Z,10.77
2023-03-17T23:33:58.237Z,12.27
2023-03-17T23:36:28.028Z,15.43
2023-03-17T23:38:56.805Z,11.67
2023-03-17T23:41:24.892Z,10.93
2023-03-17T23:43:53.328Z,14.90
2023-03-17T23:46:21.575Z,14.10
2023-03-17T23:48:50.361Z,12.57
2023-03-17T23:51:18.714Z,15.17
2023-03-17T23:53:48.387Z,14.17
2023-03-17T23:56:16.583Z,16.17
2023-03-17T23:58:44.807Z,11.73
